sensor_id;sensor_type;location;lat;lon;timestamp;pressure;altitude;pressure_sealevel;temperature;humidity
14120;BME280;7138;49.246;9.100;2022-07-09T00:00:44;99805.31;;;18.21;74.41
14120;BME280;7138;49.246;9.100;2022-07-09T00:03:10;99812.25;;;18.25;74.41
14120;BME280;7138;49.246;9.100;2022-07-09T00:05:35;99804.38;;;18.25;74.48
14120;BME280;7138;49.246;9.100;2022-07-09T00:08:01;99810.50;;;18.24;74.80
14120;BME280;7138;49.246;9.100;2022-07-09T00:10:27;99799.19;;;18.24;75.43
14120;BME280;7138;49.246;9.100;2022-07-09T00:12:55;99809.59;;;18.28;75.81
14120;BME280;7138;49.246;9.100;2022-07-09T00:15:21;99796.41;;;18.34;75.03
14120;BME280;7138;49.246;9.100;2022-07-09T00:17:46;99795.50;;;18.37;76.06
14120;BME280;7138;49.246;9.100;2022-07-09T00:20:12;99804.31;;;18.31;76.76
14120;BME280;7138;49.246;9.100;2022-07-09T00:22:38;99799.16;;;18.25;76.68
14120;BME280;7138;49.246;9.100;2022-07-09T00:25:05;99800.06;;;18.21;76.48
14120;BME280;7138;49.246;9.100;2022-07-09T00:27:31;99793.09;;;18.22;75.62
14120;BME280;7138;49.246;9.100;2022-07-09T00:29:58;99794.81;;;18.23;75.65
14120;BME280;7138;49.246;9.100;2022-07-09T00:32:24;99800.06;;;18.23;75.50
14120;BME280;7138;49.246;9.100;2022-07-09T00:34:50;99791.34;;;18.24;75.79
14120;BME280;7138;49.246;9.100;2022-07-09T00:37:16;99784.34;;;18.21;76.54
14120;BME280;7138;49.246;9.100;2022-07-09T00:39:41;99782.59;;;18.23;76.72
14120;BME280;7138;49.246;9.100;2022-07-09T00:42:09;99777.38;;;18.22;76.42
14120;BME280;7138;49.246;9.100;2022-07-09T00:44:37;99779.13;;;18.21;75.91
14120;BME280;7138;49.246;9.100;2022-07-09T00:47:06;99774.75;;;18.22;75.84
14120;BME280;7138;49.246;9.100;2022-07-09T00:49:38;99781.72;;;18.23;75.86
14120;BME280;7138;49.246;9.100;2022-07-09T00:52:09;99773.09;;;18.18;76.33
14120;BME280;7138;49.246;9.100;2022-07-09T00:54:36;99774.88;;;18.14;76.20
14120;BME280;7138;49.246;9.100;2022-07-09T00:57:05;99777.53;;;18.11;76.39
14120;BME280;7138;49.246;9.100;2022-07-09T00:59:33;99776.66;;;18.11;76.31
14120;BME280;7138;49.246;9.100;2022-07-09T01:02:00;99777.59;;;18.07;76.38
14120;BME280;7138;49.246;9.100;2022-07-09T01:04:27;99777.66;;;18.02;76.71
14120;BME280;7138;49.246;9.100;2022-07-09T01:06:53;99778.53;;;17.99;76.59
14120;BME280;7138;49.246;9.100;2022-07-09T01:09:19;99774.25;;;17.95;76.60
14120;BME280;7138;49.246;9.100;2022-07-09T01:11:46;99769.03;;;17.94;77.15
14120;BME280;7138;49.246;9.100;2022-07-09T01:14:13;99762.09;;;17.93;77.45
14120;BME280;7138;49.246;9.100;2022-07-09T01:16:39;99769.97;;;17.88;78.02
14120;BME280;7138;49.246;9.100;2022-07-09T01:19:06;99759.59;;;17.84;77.47
14120;BME280;7138;49.246;9.100;2022-07-09T01:21:35;99763.13;;;17.78;77.31
14120;BME280;7138;49.246;9.100;2022-07-09T01:24:01;99757.13;;;17.72;77.58
14120;BME280;7138;49.246;9.100;2022-07-09T01:26:28;99750.16;;;17.71;77.43
14120;BME280;7138;49.246;9.100;2022-07-09T01:28:54;99758.03;;;17.68;77.17
14120;BME280;7138;49.246;9.100;2022-07-09T01:31:20;99749.34;;;17.64;77.51
14120;BME280;7138;49.246;9.100;2022-07-09T01:33:46;99751.22;;;17.56;77.87
14120;BME280;7138;49.246;9.100;2022-07-09T01:36:12;99743.38;;;17.53;77.95
14120;BME280;7138;49.246;9.100;2022-07-09T01:38:39;99741.63;;;17.54;78.14
14120;BME280;7138;49.246;9.100;2022-07-09T01:41:05;99742.53;;;17.48;78.34
14120;BME280;7138;49.246;9.100;2022-07-09T01:43:31;99745.16;;;17.49;78.14
14120;BME280;7138;49.246;9.100;2022-07-09T01:45:59;99743.47;;;17.44;77.84
14120;BME280;7138;49.246;9.100;2022-07-09T01:48:25;99740.81;;;17.45;78.52
14120;BME280;7138;49.246;9.100;2022-07-09T01:50:51;99746.19;;;17.35;78.38
14120;BME280;7138;49.246;9.100;2022-07-09T01:53:19;99745.34;;;17.31;78.81
14120;BME280;7138;49.246;9.100;2022-07-09T01:55:46;99741.03;;;17.29;78.87
14120;BME280;7138;49.246;9.100;2022-07-09T01:58:12;99738.41;;;17.27;78.99
14120;BME280;7138;49.246;9.100;2022-07-09T02:00:39;99739.31;;;17.25;79.62
14120;BME280;7138;49.246;9.100;2022-07-09T02:03:05;99743.72;;;17.23;79.54
14120;BME280;7138;49.246;9.100;2022-07-09T02:05:31;99743.75;;;17.18;79.80
14120;BME280;7138;49.246;9.100;2022-07-09T02:07:57;99742.91;;;17.15;80.29
14120;BME280;7138;49.246;9.100;2022-07-09T02:10:22;99739.47;;;17.10;80.31
14120;BME280;7138;49.246;9.100;2022-07-09T02:12:50;99746.44;;;17.11;80.92
14120;BME280;7138;49.246;9.100;2022-07-09T02:15:16;99742.13;;;17.07;80.57
14120;BME280;7138;49.246;9.100;2022-07-09T02:17:41;99739.53;;;17.04;80.46
14120;BME280;7138;49.246;9.100;2022-07-09T02:20:08;99749.13;;;17.03;80.24
14120;BME280;7138;49.246;9.100;2022-07-09T02:22:34;99745.63;;;17.04;80.26
14120;BME280;7138;49.246;9.100;2022-07-09T02:25:00;99739.50;;;17.07;79.94
14120;BME280;7138;49.246;9.100;2022-07-09T02:27:26;99715.34;;;16.86;80.19
14120;BME280;7138;49.246;9.100;2022-07-09T02:29:54;99740.44;;;17.00;80.72
14120;BME280;7138;49.246;9.100;2022-07-09T02:32:19;99740.53;;;16.92;81.08
14120;BME280;7138;49.246;9.100;2022-07-09T02:34:45;99741.47;;;16.85;81.39
14120;BME280;7138;49.246;9.100;2022-07-09T02:37:11;99743.25;;;16.80;81.14
14120;BME280;7138;49.246;9.100;2022-07-09T02:39:37;99736.34;;;16.74;81.57
14120;BME280;7138;49.246;9.100;2022-07-09T02:42:03;99741.50;;;16.79;81.04
14120;BME280;7138;49.246;9.100;2022-07-09T02:44:29;99744.13;;;16.79;81.08
14120;BME280;7138;49.246;9.100;2022-07-09T02:46:57;99746.81;;;16.71;81.71
14120;BME280;7138;49.246;9.100;2022-07-09T02:49:22;99742.50;;;16.64;81.73
14120;BME280;7138;49.246;9.100;2022-07-09T02:51:49;99746.03;;;16.62;81.77
14120;BME280;7138;49.246;9.100;2022-07-09T02:54:15;99746.06;;;16.54;82.27
14120;BME280;7138;49.246;9.100;2022-07-09T02:56:41;99742.56;;;16.51;82.45
14120;BME280;7138;49.246;9.100;2022-07-09T02:59:07;99749.56;;;16.50;82.38
14120;BME280;7138;49.246;9.100;2022-07-09T03:01:32;99746.06;;;16.53;82.20
14120;BME280;7138;49.246;9.100;2022-07-09T03:04:00;99752.19;;;16.50;81.83
14120;BME280;7138;49.246;9.100;2022-07-09T03:06:26;99751.34;;;16.44;82.02
14120;BME280;7138;49.246;9.100;2022-07-09T03:08:52;99752.28;;;16.36;82.65
14120;BME280;7138;49.246;9.100;2022-07-09T03:11:18;99750.53;;;16.32;82.49
14120;BME280;7138;49.246;9.100;2022-07-09T03:13:44;99755.78;;;16.34;82.23
14120;BME280;7138;49.246;9.100;2022-07-09T03:16:09;99752.31;;;16.27;82.33
14120;BME280;7138;49.246;9.100;2022-07-09T03:18:37;99750.59;;;16.26;82.32
14120;BME280;7138;49.246;9.100;2022-07-09T03:21:06;99751.47;;;16.24;82.72
14120;BME280;7138;49.246;9.100;2022-07-09T03:23:33;99748.88;;;16.25;82.76
14120;BME280;7138;49.246;9.100;2022-07-09T03:25:59;99748.00;;;16.23;83.06
14120;BME280;7138;49.246;9.100;2022-07-09T03:28:25;99748.94;;;16.15;83.52
14120;BME280;7138;49.246;9.100;2022-07-09T03:30:51;99746.31;;;16.16;83.16
14120;BME280;7138;49.246;9.100;2022-07-09T03:33:17;99741.97;;;16.17;83.01
14120;BME280;7138;49.246;9.100;2022-07-09T03:35:43;99742.84;;;16.11;83.82
14120;BME280;7138;49.246;9.100;2022-07-09T03:38:10;99740.28;;;16.05;84.39
14120;BME280;7138;49.246;9.100;2022-07-09T03:40:36;99741.19;;;16.04;84.07
14120;BME280;7138;49.246;9.100;2022-07-09T03:43:02;99737.69;;;16.05;84.08
14120;BME280;7138;49.246;9.100;2022-07-09T03:45:28;99734.22;;;16.05;84.22
14120;BME280;7138;49.246;9.100;2022-07-09T03:47:53;99738.56;;;16.04;84.60
14120;BME280;7138;49.246;9.100;2022-07-09T03:50:19;99743.75;;;16.10;84.64
14120;BME280;7138;49.246;9.100;2022-07-09T03:52:46;99740.25;;;16.13;84.19
14120;BME280;7138;49.246;9.100;2022-07-09T03:55:13;99746.31;;;16.16;84.60
14120;BME280;7138;49.246;9.100;2022-07-09T03:57:39;99747.19;;;16.20;84.60
14120;BME280;7138;49.246;9.100;2022-07-09T04:00:07;99739.38;;;16.14;85.22
14120;BME280;7138;49.246;9.100;2022-07-09T04:02:32;99744.63;;;16.11;85.45
14120;BME280;7138;49.246;9.100;2022-07-09T04:04:58;99737.66;;;16.10;86.03
14120;BME280;7138;49.246;9.100;2022-07-09T04:07:24;99743.78;;;16.07;86.11
14120;BME280;7138;49.246;9.100;2022-07-09T04:09:52;99749.00;;;16.07;86.23
14120;BME280;7138;49.246;9.100;2022-07-09T04:12:19;99748.03;;;16.17;85.12
14120;BME280;7138;49.246;9.100;2022-07-09T04:14:45;99744.53;;;16.26;85.11
14120;BME280;7138;49.246;9.100;2022-07-09T04:17:11;99747.09;;;16.27;85.03
14120;BME280;7138;49.246;9.100;2022-07-09T04:19:37;99748.81;;;16.30;84.97
14120;BME280;7138;49.246;9.100;2022-07-09T04:22:03;99750.56;;;16.34;84.95
14120;BME280;7138;49.246;9.100;2022-07-09T04:24:29;99748.78;;;16.36;85.19
14120;BME280;7138;49.246;9.100;2022-07-09T04:26:55;99749.63;;;16.39;84.86
14120;BME280;7138;49.246;9.100;2022-07-09T04:29:23;99761.81;;;16.44;85.67
14120;BME280;7138;49.246;9.100;2022-07-09T04:31:48;99764.38;;;16.47;85.38
14120;BME280;7138;49.246;9.100;2022-07-09T04:34:14;99765.22;;;16.55;85.39
14120;BME280;7138;49.246;9.100;2022-07-09T04:36:40;99764.34;;;16.59;85.21
14120;BME280;7138;49.246;9.100;2022-07-09T04:39:06;99759.94;;;16.64;85.37
14120;BME280;7138;49.246;9.100;2022-07-09T04:41:32;99758.19;;;16.63;85.03
14120;BME280;7138;49.246;9.100;2022-07-09T04:43:58;99764.22;;;16.74;84.71
14120;BME280;7138;49.246;9.100;2022-07-09T04:46:25;99760.66;;;16.78;84.09
14120;BME280;7138;49.246;9.100;2022-07-09T04:48:53;99759.78;;;16.82;84.71
14120;BME280;7138;49.246;9.100;2022-07-09T04:51:19;99764.09;;;16.86;84.34
14120;BME280;7138;49.246;9.100;2022-07-09T04:53:44;99763.22;;;16.85;84.68
14120;BME280;7138;49.246;9.100;2022-07-09T04:56:10;99759.72;;;16.88;84.78
14120;BME280;7138;49.246;9.100;2022-07-09T04:58:36;99757.06;;;16.91;84.96
14120;BME280;7138;49.246;9.100;2022-07-09T05:01:03;99752.69;;;16.96;85.10
14120;BME280;7138;49.246;9.100;2022-07-09T05:03:30;99760.50;;;16.99;85.06
14120;BME280;7138;49.246;9.100;2022-07-09T05:05:56;99762.22;;;17.02;84.42
14120;BME280;7138;49.246;9.100;2022-07-09T05:08:22;99748.22;;;17.06;84.87
14120;BME280;7138;49.246;9.100;2022-07-09T05:10:48;99757.56;;;17.32;84.03
14120;BME280;7138;49.246;9.100;2022-07-09T05:13:14;99755.16;;;17.87;83.01
14120;BME280;7138;49.246;9.100;2022-07-09T05:15:40;99748.91;;;18.59;81.22
14120;BME280;7138;49.246;9.100;2022-07-09T05:18:05;99751.03;;;19.39;78.43
14120;BME280;7138;49.246;9.100;2022-07-09T05:20:33;99752.63;;;20.28;76.11
14120;BME280;7138;49.246;9.100;2022-07-09T05:22:58;99754.72;;;21.21;73.37
14120;BME280;7138;49.246;9.100;2022-07-09T05:25:24;99747.75;;;22.12;70.86
14120;BME280;7138;49.246;9.100;2022-07-09T05:27:50;99751.38;;;22.90;69.39
14120;BME280;7138;49.246;9.100;2022-07-09T05:30:16;99751.25;;;23.69;67.46
14120;BME280;7138;49.246;9.100;2022-07-09T05:32:43;99748.66;;;24.37;65.20
14120;BME280;7138;49.246;9.100;2022-07-09T05:35:09;99754.53;;;24.87;64.00
14120;BME280;7138;49.246;9.100;2022-07-09T05:37:42;99762.63;;;25.44;62.55
14120;BME280;7138;49.246;9.100;2022-07-09T05:40:09;99755.53;;;26.04;60.93
14120;BME280;7138;49.246;9.100;2022-07-09T05:42:35;99753.53;;;26.46;59.93
14120;BME280;7138;49.246;9.100;2022-07-09T05:45:01;99749.28;;;26.78;59.45
14120;BME280;7138;49.246;9.100;2022-07-09T05:47:27;99748.75;;;26.72;58.87
14120;BME280;7138;49.246;9.100;2022-07-09T05:49:53;99745.31;;;26.51;59.25
14120;BME280;7138;49.246;9.100;2022-07-09T05:52:19;99746.28;;;26.13;60.21
14120;BME280;7138;49.246;9.100;2022-07-09T05:54:46;99749.88;;;25.93;60.33
14120;BME280;7138;49.246;9.100;2022-07-09T05:57:12;99745.69;;;26.06;60.61
14120;BME280;7138;49.246;9.100;2022-07-09T05:59:38;99743.03;;;26.62;60.64
14120;BME280;7138;49.246;9.100;2022-07-09T06:02:04;99745.72;;;27.31;58.69
14120;BME280;7138;49.246;9.100;2022-07-09T06:04:31;99739.31;;;28.00;57.58
14120;BME280;7138;49.246;9.100;2022-07-09T06:06:57;99738.75;;;28.73;56.74
14120;BME280;7138;49.246;9.100;2022-07-09T06:09:23;99738.22;;;29.42;55.49
14120;BME280;7138;49.246;9.100;2022-07-09T06:11:50;99736.78;;;30.07;54.79
14120;BME280;7138;49.246;9.100;2022-07-09T06:14:15;99741.25;;;30.62;53.94
14120;BME280;7138;49.246;9.100;2022-07-09T06:16:42;99752.44;;;31.20;52.56
14120;BME280;7138;49.246;9.100;2022-07-09T06:19:08;99749.50;;;31.75;51.71
14120;BME280;7138;49.246;9.100;2022-07-09T06:21:34;99748.19;;;32.06;51.17
14120;BME280;7138;49.246;9.100;2022-07-09T06:24:00;99752.72;;;32.29;50.74
14120;BME280;7138;49.246;9.100;2022-07-09T06:26:25;99748.44;;;32.39;50.24
14120;BME280;7138;49.246;9.100;2022-07-09T06:28:53;99751.50;;;32.46;50.14
14120;BME280;7138;49.246;9.100;2022-07-09T06:31:19;99755.38;;;32.42;49.92
14120;BME280;7138;49.246;9.100;2022-07-09T06:33:44;99753.44;;;32.44;50.17
14120;BME280;7138;49.246;9.100;2022-07-09T06:36:10;99748.03;;;32.20;50.12
14120;BME280;7138;49.246;9.100;2022-07-09T06:38:36;99747.25;;;31.69;49.88
14120;BME280;7138;49.246;9.100;2022-07-09T06:41:22;99750.28;;;31.00;50.98
14120;BME280;7138;49.246;9.100;2022-07-09T06:43:48;99744.63;;;30.37;51.64
14120;BME280;7138;49.246;9.100;2022-07-09T06:46:15;99742.59;;;29.71;53.25
14120;BME280;7138;49.246;9.100;2022-07-09T06:48:41;99741.66;;;29.14;53.90
14120;BME280;7138;49.246;9.100;2022-07-09T06:51:07;99745.91;;;28.57;54.59
14120;BME280;7138;49.246;9.100;2022-07-09T06:53:32;99734.50;;;28.08;55.33
14120;BME280;7138;49.246;9.100;2022-07-09T06:55:59;99735.25;;;27.62;56.51
14120;BME280;7138;49.246;9.100;2022-07-09T06:58:24;99736.81;;;27.32;57.73
14120;BME280;7138;49.246;9.100;2022-07-09T07:00:50;99739.13;;;27.05;57.49
14120;BME280;7138;49.246;9.100;2022-07-09T07:03:18;99737.97;;;26.75;58.14
14120;BME280;7138;49.246;9.100;2022-07-09T07:05:43;99731.84;;;26.55;58.44
14120;BME280;7138;49.246;9.100;2022-07-09T07:08:09;99730.34;;;26.50;60.10
14120;BME280;7138;49.246;9.100;2022-07-09T07:10:35;99736.44;;;26.52;59.72
14120;BME280;7138;49.246;9.100;2022-07-09T07:13:01;99737.66;;;26.45;59.81
14120;BME280;7138;49.246;9.100;2022-07-09T07:15:27;99736.19;;;26.39;58.60
14120;BME280;7138;49.246;9.100;2022-07-09T07:17:53;99744.22;;;26.38;59.71
14120;BME280;7138;49.246;9.100;2022-07-09T07:20:20;99743.97;;;26.42;59.98
14120;BME280;7138;49.246;9.100;2022-07-09T07:22:50;99742.44;;;26.38;58.53
14120;BME280;7138;49.246;9.100;2022-07-09T07:25:16;99738.41;;;26.30;58.86
14120;BME280;7138;49.246;9.100;2022-07-09T07:27:42;99739.28;;;26.30;59.69
14120;BME280;7138;49.246;9.100;2022-07-09T07:30:09;99744.22;;;26.38;59.55
14120;BME280;7138;49.246;9.100;2022-07-09T07:32:34;99733.25;;;26.27;58.54
14120;BME280;7138;49.246;9.100;2022-07-09T07:35:00;99732.91;;;26.16;58.61
14120;BME280;7138;49.246;9.100;2022-07-09T07:37:29;99729.59;;;26.11;59.32
14120;BME280;7138;49.246;9.100;2022-07-09T07:39:57;99737.84;;;26.04;59.96
14120;BME280;7138;49.246;9.100;2022-07-09T07:42:23;99736.09;;;26.03;59.55
14120;BME280;7138;49.246;9.100;2022-07-09T07:44:49;99725.22;;;26.09;61.84
14120;BME280;7138;49.246;9.100;2022-07-09T07:47:15;99726.75;;;26.15;61.19
14120;BME280;7138;49.246;9.100;2022-07-09T07:49:41;99733.03;;;26.31;61.33
14120;BME280;7138;49.246;9.100;2022-07-09T07:52:07;99723.94;;;26.54;59.64
14120;BME280;7138;49.246;9.100;2022-07-09T07:54:34;99736.00;;;26.78;59.14
14120;BME280;7138;49.246;9.100;2022-07-09T07:57:01;99728.66;;;27.02;58.68
14120;BME280;7138;49.246;9.100;2022-07-09T07:59:27;99723.00;;;27.25;58.60
14120;BME280;7138;49.246;9.100;2022-07-09T08:01:53;99728.69;;;27.52;58.67
14120;BME280;7138;49.246;9.100;2022-07-09T08:04:19;99724.97;;;27.72;58.65
14120;BME280;7138;49.246;9.100;2022-07-09T08:06:45;99719.34;;;27.93;58.36
14120;BME280;7138;49.246;9.100;2022-07-09T08:09:10;99716.88;;;28.06;57.08
14120;BME280;7138;49.246;9.100;2022-07-09T08:11:38;99716.13;;;28.19;57.34
14120;BME280;7138;49.246;9.100;2022-07-09T08:14:04;99709.81;;;28.36;57.82
14120;BME280;7138;49.246;9.100;2022-07-09T08:16:30;99717.78;;;28.52;57.12
14120;BME280;7138;49.246;9.100;2022-07-09T08:18:56;99709.91;;;28.66;56.48
14120;BME280;7138;49.246;9.100;2022-07-09T08:21:22;99711.56;;;28.83;56.86
14120;BME280;7138;49.246;9.100;2022-07-09T08:23:48;99707.63;;;29.04;57.09
14120;BME280;7138;49.246;9.100;2022-07-09T08:26:17;99702.91;;;29.23;56.49
14120;BME280;7138;49.246;9.100;2022-07-09T08:28:45;99705.25;;;29.29;55.27
14120;BME280;7138;49.246;9.100;2022-07-09T08:31:11;99700.00;;;29.27;55.69
14120;BME280;7138;49.246;9.100;2022-07-09T08:33:37;99695.44;;;29.30;55.28
14120;BME280;7138;49.246;9.100;2022-07-09T08:36:04;99695.81;;;29.38;55.70
14120;BME280;7138;49.246;9.100;2022-07-09T08:38:30;99701.72;;;29.43;56.02
14120;BME280;7138;49.246;9.100;2022-07-09T08:40:59;99696.09;;;29.61;55.76
14120;BME280;7138;49.246;9.100;2022-07-09T08:43:25;99695.16;;;29.76;55.33
14120;BME280;7138;49.246;9.100;2022-07-09T08:45:54;99687.84;;;29.94;55.42
14120;BME280;7138;49.246;9.100;2022-07-09T08:48:21;99685.56;;;29.88;55.93
14120;BME280;7138;49.246;9.100;2022-07-09T08:50:48;99683.09;;;29.85;55.64
14120;BME280;7138;49.246;9.100;2022-07-09T08:53:18;99682.03;;;29.88;54.00
14120;BME280;7138;49.246;9.100;2022-07-09T08:55:45;99673.16;;;29.87;54.74
14120;BME280;7138;49.246;9.100;2022-07-09T08:58:13;99673.53;;;29.95;53.86
14120;BME280;7138;49.246;9.100;2022-07-09T09:00:39;99674.00;;;29.73;54.55
14120;BME280;7138;49.246;9.100;2022-07-09T09:03:07;99671.25;;;29.75;53.98
14120;BME280;7138;49.246;9.100;2022-07-09T09:05:33;99676.59;;;29.47;55.52
14120;BME280;7138;49.246;9.100;2022-07-09T09:07:59;99670.03;;;29.38;55.12
14120;BME280;7138;49.246;9.100;2022-07-09T09:10:26;99659.34;;;29.52;55.60
14120;BME280;7138;49.246;9.100;2022-07-09T09:12:57;99662.09;;;29.79;56.14
14120;BME280;7138;49.246;9.100;2022-07-09T09:15:23;99657.72;;;29.92;54.11
14120;BME280;7138;49.246;9.100;2022-07-09T09:17:50;99653.97;;;30.09;55.13
14120;BME280;7138;49.246;9.100;2022-07-09T09:20:18;99653.44;;;30.16;54.11
14120;BME280;7138;49.246;9.100;2022-07-09T09:22:46;99651.84;;;30.14;52.34
14120;BME280;7138;49.246;9.100;2022-07-09T09:25:16;99653.69;;;29.99;53.01
14120;BME280;7138;49.246;9.100;2022-07-09T09:27:51;99647.09;;;30.05;53.61
14120;BME280;7138;49.246;9.100;2022-07-09T09:30:17;99653.56;;;30.15;54.21
14120;BME280;7138;49.246;9.100;2022-07-09T09:32:43;99648.69;;;30.21;54.17
14120;BME280;7138;49.246;9.100;2022-07-09T09:35:09;99644.09;;;30.23;54.13
14120;BME280;7138;49.246;9.100;2022-07-09T09:37:37;99652.50;;;30.17;54.71
14120;BME280;7138;49.246;9.100;2022-07-09T09:40:08;99639.00;;;30.33;54.01
14120;BME280;7138;49.246;9.100;2022-07-09T09:42:40;99632.56;;;30.50;53.04
14120;BME280;7138;49.246;9.100;2022-07-09T09:45:09;99635.59;;;30.58;53.24
14120;BME280;7138;49.246;9.100;2022-07-09T09:47:37;99639.69;;;30.76;54.31
14120;BME280;7138;49.246;9.100;2022-07-09T09:50:05;99643.59;;;30.97;53.25
14120;BME280;7138;49.246;9.100;2022-07-09T09:52:36;99639.50;;;31.17;53.27
14120;BME280;7138;49.246;9.100;2022-07-09T09:55:05;99638.84;;;31.38;52.42
14120;BME280;7138;49.246;9.100;2022-07-09T09:57:31;99634.25;;;31.40;51.29
14120;BME280;7138;49.246;9.100;2022-07-09T09:59:58;99632.66;;;31.38;51.92
14120;BME280;7138;49.246;9.100;2022-07-09T10:02:25;99634.91;;;31.31;49.75
14120;BME280;7138;49.246;9.100;2022-07-09T10:04:52;99636.94;;;31.03;50.71
14120;BME280;7138;49.246;9.100;2022-07-09T10:07:18;99625.56;;;30.86;51.03
14120;BME280;7138;49.246;9.100;2022-07-09T10:09:55;99627.16;;;30.89;50.63
14120;BME280;7138;49.246;9.100;2022-07-09T10:12:25;99626.00;;;30.93;52.09
14120;BME280;7138;49.246;9.100;2022-07-09T10:14:52;99620.28;;;30.99;52.98
14120;BME280;7138;49.246;9.100;2022-07-09T10:17:18;99617.91;;;30.95;51.89
14120;BME280;7138;49.246;9.100;2022-07-09T10:19:54;99618.50;;;30.85;51.34
14120;BME280;7138;49.246;9.100;2022-07-09T10:22:21;99620.97;;;30.76;52.36
14120;BME280;7138;49.246;9.100;2022-07-09T10:24:52;99614.19;;;30.97;51.45
14120;BME280;7138;49.246;9.100;2022-07-09T10:27:18;99618.25;;;31.15;51.70
14120;BME280;7138;49.246;9.100;2022-07-09T10:29:54;99612.78;;;31.17;50.45
14120;BME280;7138;49.246;9.100;2022-07-09T10:32:28;99621.66;;;31.17;51.53
14120;BME280;7138;49.246;9.100;2022-07-09T10:34:57;99624.03;;;31.09;51.55
14120;BME280;7138;49.246;9.100;2022-07-09T10:37:35;99618.63;;;30.84;51.51
14120;BME280;7138;49.246;9.100;2022-07-09T10:40:09;99620.81;;;30.52;53.05
14120;BME280;7138;49.246;9.100;2022-07-09T10:42:39;99617.94;;;30.28;52.70
14120;BME280;7138;49.246;9.100;2022-07-09T10:45:22;99613.88;;;29.96;53.94
14120;BME280;7138;49.246;9.100;2022-07-09T10:47:56;99613.97;;;29.95;57.29
14120;BME280;7138;49.246;9.100;2022-07-09T10:50:23;99606.22;;;30.04;57.08
14120;BME280;7138;49.246;9.100;2022-07-09T10:52:49;99614.72;;;30.23;56.78
14120;BME280;7138;49.246;9.100;2022-07-09T10:55:18;99611.59;;;30.44;53.83
14120;BME280;7138;49.246;9.100;2022-07-09T10:57:44;99600.50;;;30.50;54.20
14120;BME280;7138;49.246;9.100;2022-07-09T11:00:15;99598.00;;;30.61;54.61
14120;BME280;7138;49.246;9.100;2022-07-09T11:02:56;99598.41;;;30.67;54.26
14120;BME280;7138;49.246;9.100;2022-07-09T11:05:23;99598.63;;;30.52;54.60
14120;BME280;7138;49.246;9.100;2022-07-09T11:08:01;99592.63;;;30.21;54.32
14120;BME280;7138;49.246;9.100;2022-07-09T11:10:30;99588.81;;;29.99;53.60
14120;BME280;7138;49.246;9.100;2022-07-09T11:12:59;99588.06;;;29.97;54.67
14120;BME280;7138;49.246;9.100;2022-07-09T11:15:28;99583.59;;;29.97;55.26
14120;BME280;7138;49.246;9.100;2022-07-09T11:17:56;99570.66;;;30.04;53.95
14120;BME280;7138;49.246;9.100;2022-07-09T11:20:22;99577.88;;;29.89;53.74
14120;BME280;7138;49.246;9.100;2022-07-09T11:22:49;99571.94;;;29.98;54.99
14120;BME280;7138;49.246;9.100;2022-07-09T11:25:15;99570.19;;;30.11;54.22
14120;BME280;7138;49.246;9.100;2022-07-09T11:27:42;99561.84;;;30.03;52.42
14120;BME280;7138;49.246;9.100;2022-07-09T11:30:12;99554.66;;;30.04;53.58
14120;BME280;7138;49.246;9.100;2022-07-09T11:32:39;99563.47;;;30.18;53.74
14120;BME280;7138;49.246;9.100;2022-07-09T11:35:05;99552.88;;;30.17;53.69
14120;BME280;7138;49.246;9.100;2022-07-09T11:37:31;99567.19;;;30.16;53.96
14120;BME280;7138;49.246;9.100;2022-07-09T11:39:57;99564.09;;;30.09;54.04
14120;BME280;7138;49.246;9.100;2022-07-09T11:42:23;99568.41;;;29.98;54.14
14120;BME280;7138;49.246;9.100;2022-07-09T11:44:56;99562.66;;;29.91;54.91
14120;BME280;7138;49.246;9.100;2022-07-09T11:47:32;99562.38;;;29.67;55.18
14120;BME280;7138;49.246;9.100;2022-07-09T11:50:05;99553.28;;;29.57;55.42
14120;BME280;7138;49.246;9.100;2022-07-09T11:52:32;99545.03;;;29.48;55.59
14120;BME280;7138;49.246;9.100;2022-07-09T11:55:00;99552.03;;;29.49;54.72
14120;BME280;7138;49.246;9.100;2022-07-09T11:57:28;99552.22;;;29.60;57.07
14120;BME280;7138;49.246;9.100;2022-07-09T11:59:57;99539.34;;;29.66;54.52
14120;BME280;7138;49.246;9.100;2022-07-09T12:02:29;99540.56;;;29.75;55.51
14120;BME280;7138;49.246;9.100;2022-07-09T12:04:56;99535.09;;;29.91;55.98
14120;BME280;7138;49.246;9.100;2022-07-09T12:07:22;99525.63;;;29.99;54.93
14120;BME280;7138;49.246;9.100;2022-07-09T12:09:58;99532.81;;;30.11;55.09
14120;BME280;7138;49.246;9.100;2022-07-09T12:12:24;99530.56;;;30.05;53.62
14120;BME280;7138;49.246;9.100;2022-07-09T12:14:50;99525.78;;;29.84;53.42
14120;BME280;7138;49.246;9.100;2022-07-09T12:17:19;99520.38;;;29.85;53.77
14120;BME280;7138;49.246;9.100;2022-07-09T12:19:45;99522.44;;;29.94;54.10
14120;BME280;7138;49.246;9.100;2022-07-09T12:22:11;99517.88;;;30.09;55.74
14120;BME280;7138;49.246;9.100;2022-07-09T12:24:37;99514.78;;;30.15;53.67
14120;BME280;7138;49.246;9.100;2022-07-09T12:27:03;99506.59;;;30.30;54.38
14120;BME280;7138;49.246;9.100;2022-07-09T12:29:29;99503.31;;;30.40;54.90
14120;BME280;7138;49.246;9.100;2022-07-09T12:31:55;99504.94;;;30.42;53.58
14120;BME280;7138;49.246;9.100;2022-07-09T12:34:22;99493.28;;;30.56;53.63
14120;BME280;7138;49.246;9.100;2022-07-09T12:36:48;99496.38;;;30.62;54.19
14120;BME280;7138;49.246;9.100;2022-07-09T12:39:15;99500.56;;;30.79;54.45
14120;BME280;7138;49.246;9.100;2022-07-09T12:41:41;99493.69;;;30.75;53.61
14120;BME280;7138;49.246;9.100;2022-07-09T12:44:06;99485.91;;;30.84;53.67
14120;BME280;7138;49.246;9.100;2022-07-09T12:46:33;99492.84;;;31.00;53.73
14120;BME280;7138;49.246;9.100;2022-07-09T12:48:59;99480.63;;;31.21;53.44
14120;BME280;7138;49.246;9.100;2022-07-09T12:51:28;99479.53;;;31.23;52.61
14120;BME280;7138;49.246;9.100;2022-07-09T12:53:53;99468.53;;;31.28;53.82
14120;BME280;7138;49.246;9.100;2022-07-09T12:56:20;99475.22;;;31.33;51.75
14120;BME280;7138;49.246;9.100;2022-07-09T12:58:46;99466.13;;;31.36;51.69
14120;BME280;7138;49.246;9.100;2022-07-09T13:01:12;99470.03;;;31.19;51.51
14120;BME280;7138;49.246;9.100;2022-07-09T13:03:38;99462.88;;;31.07;51.69
14120;BME280;7138;49.246;9.100;2022-07-09T13:06:05;99467.50;;;30.80;51.26
14120;BME280;7138;49.246;9.100;2022-07-09T13:08:53;99459.06;;;30.35;52.87